Nur fliegen ist schöner ....

Willkommen beim Flugservice Bautzen GmbH

Wir sind eine nach europäischen Richtlinien zugelassene Flugschule und lizenziertes Luftfahrtunternehmen. Bei uns können sie nicht nur Rundflüge über die Oberlausitz oder Sachsen buchen, sondern in unserer Flugschule selber das Fliegen erlernen. Erfahrene Fluglehrer stehen ihnen dabei zur Seite.

Wir bieten außerdem Businessflüghe sowie Transportleistungen auf dem Luftweg, ganz nach ihren Wünschen, an. Schauen sie sich in Ruhe bei uns um und wenn sie Fragen haben oder weitere Informationen benötigen, scheuen sie sich nicht Kontakt mit uns aufzunehmen.

Rundflüge können sie ganz leicht auch online in unserem Shop buchen.

Terminkalender

Letzter Monat April 2017 Nächster Monat
Mo Di Mi Do Fr Sa So
week 13 1 2
week 14 3 4 5 6 7 8 9
week 15 10 11 12 13 14 15 16
week 16 17 18 19 20 21 22 23
week 17 24 25 26 27 28 29 30

Flugwetterinfo

[Quelle: ADDS]
METAR
EDDC 251550Z 26009KT 230V300 9999 -RA FEW024 BKN044 OVC120 07/02 Q1007 NOSIG =
TAF
EDDC 251100Z 2512/2612 27015G25KT 9999 BKN020 BECMG 2513/2517 28007KT BECMG 2605/2608 03004KT =
SR / SS: 03:44 / 18:14 UTC (EDAB Flugplatz Bautzen 2017-04-25)

Webcam EDAB

Webcam EDAB
Flugservice Bautzen GmbH, Kornmarkt 34, 02625 Bautzen  Telefon: +49 (3591) 211105, Telefax: +49 (3591) 274512, E-Mail:  flugservice(at)fsbautzen.de